sensor_id;sensor_type;location;lat;lon;timestamp;pressure;altitude;pressure_sealevel;temperature;humidity
44839;BME280;30576;42.098;24.876;2023-01-08T00:01:17;100456.38;;;2.45;68.32
44839;BME280;30576;42.098;24.876;2023-01-08T00:03:43;100458.66;;;2.34;68.80
44839;BME280;30576;42.098;24.876;2023-01-08T00:06:12;100459.00;;;2.46;68.75
44839;BME280;30576;42.098;24.876;2023-01-08T00:08:39;100460.97;;;2.54;68.04
44839;BME280;30576;42.098;24.876;2023-01-08T00:11:04;100464.41;;;2.53;67.92
44839;BME280;30576;42.098;24.876;2023-01-08T00:13:29;100462.78;;;2.56;67.71
44839;BME280;30576;42.098;24.876;2023-01-08T00:15:55;100458.22;;;2.20;70.57
44839;BME280;30576;42.098;24.876;2023-01-08T00:18:20;100456.19;;;2.39;70.66
44839;BME280;30576;42.098;24.876;2023-01-08T00:20:45;100456.22;;;2.40;71.57
44839;BME280;30576;42.098;24.876;2023-01-08T00:23:14;100458.38;;;2.25;72.24
44839;BME280;30576;42.098;24.876;2023-01-08T00:25:40;100453.38;;;2.32;72.80
44839;BME280;30576;42.098;24.876;2023-01-08T00:28:05;100454.00;;;2.53;72.19
44839;BME280;30576;42.098;24.876;2023-01-08T00:30:31;100453.94;;;2.51;71.69
44839;BME280;30576;42.098;24.876;2023-01-08T00:32:56;100458.19;;;2.47;71.95
44839;BME280;30576;42.098;24.876;2023-01-08T00:35:21;100457.28;;;2.47;72.56
44839;BME280;30576;42.098;24.876;2023-01-08T00:37:50;100455.09;;;2.61;71.28
44839;BME280;30576;42.098;24.876;2023-01-08T00:40:15;100459.97;;;2.50;70.76
44839;BME280;30576;42.098;24.876;2023-01-08T00:42:40;100458.06;;;2.43;70.34
44839;BME280;30576;42.098;24.876;2023-01-08T00:45:06;100459.97;;;2.50;69.71
44839;BME280;30576;42.098;24.876;2023-01-08T00:47:31;100466.06;;;2.49;69.26
44839;BME280;30576;42.098;24.876;2023-01-08T00:49:57;100457.19;;;2.44;69.48
44839;BME280;30576;42.098;24.876;2023-01-08T00:52:23;100455.31;;;2.38;70.29
44839;BME280;30576;42.098;24.876;2023-01-08T00:54:48;100457.63;;;2.29;71.55
44839;BME280;30576;42.098;24.876;2023-01-08T00:57:13;100462.22;;;2.38;71.52
44839;BME280;30576;42.098;24.876;2023-01-08T00:59:39;100463.75;;;2.31;71.82
44839;BME280;30576;42.098;24.876;2023-01-08T01:02:05;100464.69;;;2.33;71.95
44839;BME280;30576;42.098;24.876;2023-01-08T01:04:30;100461.84;;;2.25;71.50
44839;BME280;30576;42.098;24.876;2023-01-08T01:06:56;100462.88;;;2.30;71.42
44839;BME280;30576;42.098;24.876;2023-01-08T01:09:21;100465.44;;;2.29;70.50
44839;BME280;30576;42.098;24.876;2023-01-08T01:11:47;100463.13;;;2.38;70.19
44839;BME280;30576;42.098;24.876;2023-01-08T01:14:12;100462.88;;;2.30;69.08
44839;BME280;30576;42.098;24.876;2023-01-08T01:16:37;100457.31;;;2.18;69.52
44839;BME280;30576;42.098;24.876;2023-01-08T01:19:04;100457.31;;;2.18;69.17
44839;BME280;30576;42.098;24.876;2023-01-08T01:21:30;100456.72;;;2.28;69.25
44839;BME280;30576;42.098;24.876;2023-01-08T01:23:57;100454.94;;;2.26;68.78
44839;BME280;30576;42.098;24.876;2023-01-08T01:26:23;100450.31;;;2.17;69.11
44839;BME280;30576;42.098;24.876;2023-01-08T01:28:49;100450.31;;;2.17;68.84
44839;BME280;30576;42.098;24.876;2023-01-08T01:31:15;100453.47;;;2.07;69.36
44839;BME280;30576;42.098;24.876;2023-01-08T01:33:41;100449.31;;;2.12;68.66
44839;BME280;30576;42.098;24.876;2023-01-08T01:36:06;100447.47;;;2.09;68.78
44839;BME280;30576;42.098;24.876;2023-01-08T01:38:32;100445.06;;;2.15;68.36
44839;BME280;30576;42.098;24.876;2023-01-08T01:40:58;100443.94;;;2.07;68.55
44839;BME280;30576;42.098;24.876;2023-01-08T01:43:36;100434.50;;;2.11;68.73
44839;BME280;30576;42.098;24.876;2023-01-08T01:46:03;100436.88;;;2.03;68.15
44839;BME280;30576;42.098;24.876;2023-01-08T01:48:30;100430.84;;;2.04;68.27
44839;BME280;30576;42.098;24.876;2023-01-08T01:50:55;100429.88;;;2.02;68.38
44839;BME280;30576;42.098;24.876;2023-01-08T01:53:22;100429.34;;;2.12;67.84
44839;BME280;30576;42.098;24.876;2023-01-08T01:55:50;100425.63;;;2.04;68.25
44839;BME280;30576;42.098;24.876;2023-01-08T01:58:19;100431.81;;;2.08;68.93
44839;BME280;30576;42.098;24.876;2023-01-08T02:00:45;100432.16;;;1.91;70.15
44839;BME280;30576;42.098;24.876;2023-01-08T02:03:12;100433.78;;;1.88;70.26
44839;BME280;30576;42.098;24.876;2023-01-08T02:05:41;100430.16;;;2.11;69.64
44839;BME280;30576;42.098;24.876;2023-01-08T02:08:10;100436.13;;;2.07;69.41
44839;BME280;30576;42.098;24.876;2023-01-08T02:13:16;100428.81;;;1.95;69.69
44839;BME280;30576;42.098;24.876;2023-01-08T02:21:00;100425.25;;;1.92;68.70
44839;BME280;30576;42.098;24.876;2023-01-08T02:26:27;100432.06;;;1.61;68.04
44839;BME280;30576;42.098;24.876;2023-01-08T02:28:57;100433.72;;;1.59;68.22
44839;BME280;30576;42.098;24.876;2023-01-08T02:31:24;100433.75;;;1.60;68.18
44839;BME280;30576;42.098;24.876;2023-01-08T02:33:50;100427.63;;;1.58;68.23
44839;BME280;30576;42.098;24.876;2023-01-08T02:36:19;100430.50;;;1.66;67.99
44839;BME280;30576;42.098;24.876;2023-01-08T02:39:35;100430.59;;;1.69;68.34
44839;BME280;30576;42.098;24.876;2023-01-08T02:42:14;100431.16;;;1.60;68.55
44839;BME280;30576;42.098;24.876;2023-01-08T02:44:21;100422.84;;;1.71;68.13
44839;BME280;30576;42.098;24.876;2023-01-08T02:46:50;100433.28;;;1.72;68.00
44839;BME280;30576;42.098;24.876;2023-01-08T02:49:16;100431.50;;;1.71;68.50
44839;BME280;30576;42.098;24.876;2023-01-08T02:51:47;100426.22;;;1.68;68.21
44839;BME280;30576;42.098;24.876;2023-01-08T02:54:15;100429.75;;;1.70;68.26
44839;BME280;30576;42.098;24.876;2023-01-08T02:56:43;100427.28;;;1.48;67.88
44839;BME280;30576;42.098;24.876;2023-01-08T02:59:09;100426.72;;;1.56;67.96
44839;BME280;30576;42.098;24.876;2023-01-08T03:01:37;100423.09;;;1.53;67.92
44839;BME280;30576;42.098;24.876;2023-01-08T03:04:03;100416.22;;;1.53;67.54
44839;BME280;30576;42.098;24.876;2023-01-08T03:06:30;100417.94;;;1.54;67.94
44839;BME280;30576;42.098;24.876;2023-01-08T03:08:57;100415.22;;;1.24;69.38
44839;BME280;30576;42.098;24.876;2023-01-08T03:11:24;100411.78;;;1.25;69.98
44839;BME280;30576;42.098;24.876;2023-01-08T03:16:20;100418.97;;;1.32;69.97
44839;BME280;30576;42.098;24.876;2023-01-08T03:18:50;100420.03;;;1.39;69.78
44839;BME280;30576;42.098;24.876;2023-01-08T03:21:16;100416.56;;;1.38;70.11
44839;BME280;30576;42.098;24.876;2023-01-08T03:23:43;100423.31;;;1.07;71.89
44839;BME280;30576;42.098;24.876;2023-01-08T03:26:10;100417.25;;;1.07;73.60
44839;BME280;30576;42.098;24.876;2023-01-08T03:28:38;100422.28;;;1.28;71.77
44839;BME280;30576;42.098;24.876;2023-01-08T03:31:05;100417.13;;;1.30;71.74
44839;BME280;30576;42.098;24.876;2023-01-08T03:33:31;100414.84;;;1.39;70.42
44839;BME280;30576;42.098;24.876;2023-01-08T03:35:57;100416.88;;;1.22;70.23
44839;BME280;30576;42.098;24.876;2023-01-08T03:38:26;100416.72;;;1.17;69.49
44839;BME280;30576;42.098;24.876;2023-01-08T03:40:56;100420.16;;;1.16;69.21
44839;BME280;30576;42.098;24.876;2023-01-08T03:43:25;100423.97;;;1.02;69.27
44839;BME280;30576;42.098;24.876;2023-01-08T03:45:52;100421.72;;;0.87;69.52
44839;BME280;30576;42.098;24.876;2023-01-08T03:48:20;100416.69;;;0.92;69.61
44839;BME280;30576;42.098;24.876;2023-01-08T03:50:46;100415.53;;;1.07;69.09
44839;BME280;30576;42.098;24.876;2023-01-08T03:53:12;100418.88;;;1.05;68.69
44839;BME280;30576;42.098;24.876;2023-01-08T03:55:37;100417.47;;;1.13;68.82
44839;BME280;30576;42.098;24.876;2023-01-08T03:58:02;100411.41;;;1.14;68.90
44839;BME280;30576;42.098;24.876;2023-01-08T04:00:28;100411.41;;;1.14;68.70
44839;BME280;30576;42.098;24.876;2023-01-08T04:02:54;100420.28;;;1.19;68.28
44839;BME280;30576;42.098;24.876;2023-01-08T04:05:19;100417.78;;;0.98;68.66
44839;BME280;30576;42.098;24.876;2023-01-08T04:07:44;100418.44;;;0.93;68.69
44839;BME280;30576;42.098;24.876;2023-01-08T04:10:09;100423.09;;;1.01;68.85
44839;BME280;30576;42.098;24.876;2023-01-08T04:12:35;100417.19;;;1.05;68.90
44839;BME280;30576;42.098;24.876;2023-01-08T04:15:00;100422.59;;;1.12;68.95
44839;BME280;30576;42.098;24.876;2023-01-08T04:17:25;100429.75;;;0.93;69.78
44839;BME280;30576;42.098;24.876;2023-01-08T04:19:51;100425.91;;;1.07;69.53
44839;BME280;30576;42.098;24.876;2023-01-08T04:22:16;100420.78;;;1.09;69.20
44839;BME280;30576;42.098;24.876;2023-01-08T04:24:41;100421.31;;;1.00;69.17
44839;BME280;30576;42.098;24.876;2023-01-08T04:27:06;100429.16;;;1.02;68.99
44839;BME280;30576;42.098;24.876;2023-01-08T04:29:32;100434.16;;;0.96;68.78
44839;BME280;30576;42.098;24.876;2023-01-08T04:31:57;100433.09;;;0.91;68.85
44839;BME280;30576;42.098;24.876;2023-01-08T04:34:22;100437.03;;;0.79;70.44
44839;BME280;30576;42.098;24.876;2023-01-08T04:36:48;100440.22;;;0.72;70.01
44839;BME280;30576;42.098;24.876;2023-01-08T04:39:13;100436.25;;;0.82;69.51
44839;BME280;30576;42.098;24.876;2023-01-08T04:41:38;100434.44;;;0.79;69.72
44839;BME280;30576;42.098;24.876;2023-01-08T04:44:04;100443.66;;;0.71;70.48
44839;BME280;30576;42.098;24.876;2023-01-08T04:46:29;100431.78;;;0.78;70.18
44839;BME280;30576;42.098;24.876;2023-01-08T04:48:54;100436.38;;;0.85;68.98
44839;BME280;30576;42.098;24.876;2023-01-08T04:51:20;100444.16;;;0.61;69.33
44839;BME280;30576;42.098;24.876;2023-01-08T04:53:46;100445.25;;;0.67;69.30
44839;BME280;30576;42.098;24.876;2023-01-08T04:56:11;100447.16;;;0.71;69.29
44839;BME280;30576;42.098;24.876;2023-01-08T04:58:37;100452.28;;;0.70;69.31
44839;BME280;30576;42.098;24.876;2023-01-08T05:01:13;100449.69;;;0.70;68.78
44839;BME280;30576;42.098;24.876;2023-01-08T05:03:39;100458.34;;;0.70;68.59
44839;BME280;30576;42.098;24.876;2023-01-08T05:06:05;100453.22;;;0.72;68.07
44839;BME280;30576;42.098;24.876;2023-01-08T05:08:31;100456.47;;;0.66;68.53
44839;BME280;30576;42.098;24.876;2023-01-08T05:11:00;100462.50;;;0.65;68.46
44839;BME280;30576;42.098;24.876;2023-01-08T05:13:25;100457.03;;;0.58;68.20
44839;BME280;30576;42.098;24.876;2023-01-08T05:15:50;100459.00;;;0.41;68.32
44839;BME280;30576;42.098;24.876;2023-01-08T05:18:16;100454.03;;;0.47;68.30
44839;BME280;30576;42.098;24.876;2023-01-08T05:20:41;100451.09;;;0.38;68.12
44839;BME280;30576;42.098;24.876;2023-01-08T05:23:06;100459.09;;;0.44;68.56
44839;BME280;30576;42.098;24.876;2023-01-08T05:25:31;100462.75;;;0.49;68.24
44839;BME280;30576;42.098;24.876;2023-01-08T05:27:57;100465.63;;;0.57;68.14
44839;BME280;30576;42.098;24.876;2023-01-08T05:30:22;100466.34;;;0.52;68.06
44839;BME280;30576;42.098;24.876;2023-01-08T05:32:47;100467.25;;;0.53;68.25
44839;BME280;30576;42.098;24.876;2023-01-08T05:35:13;100466.56;;;0.59;68.15
44839;BME280;30576;42.098;24.876;2023-01-08T05:37:39;100467.13;;;0.50;68.06
44839;BME280;30576;42.098;24.876;2023-01-08T05:40:05;100470.59;;;0.50;67.98
44839;BME280;30576;42.098;24.876;2023-01-08T05:42:32;100476.44;;;0.45;67.98
44839;BME280;30576;42.098;24.876;2023-01-08T05:44:57;100471.47;;;0.51;67.81
44839;BME280;30576;42.098;24.876;2023-01-08T05:47:23;100474.63;;;0.42;67.86
44839;BME280;30576;42.098;24.876;2023-01-08T05:49:48;100473.78;;;0.43;68.05
44839;BME280;30576;42.098;24.876;2023-01-08T05:52:13;100474.63;;;0.42;67.70
44839;BME280;30576;42.098;24.876;2023-01-08T05:54:39;100477.25;;;0.21;68.27
44839;BME280;30576;42.098;24.876;2023-01-08T05:57:04;100485.50;;;0.11;68.50
44839;BME280;30576;42.098;24.876;2023-01-08T05:59:29;100488.28;;;0.15;68.44
44839;BME280;30576;42.098;24.876;2023-01-08T06:01:54;100482.16;;;0.13;68.55
44839;BME280;30576;42.098;24.876;2023-01-08T06:04:20;100483.38;;;0.23;68.30
44839;BME280;30576;42.098;24.876;2023-01-08T06:06:45;100481.75;;;0.25;68.67
44839;BME280;30576;42.098;24.876;2023-01-08T06:09:10;100481.03;;;0.29;68.51
44839;BME280;30576;42.098;24.876;2023-01-08T06:11:37;100481.94;;;0.30;70.54
44839;BME280;30576;42.098;24.876;2023-01-08T06:14:02;100480.75;;;0.44;70.71
44839;BME280;30576;42.098;24.876;2023-01-08T06:16:27;100485.59;;;0.58;68.75
44839;BME280;30576;42.098;24.876;2023-01-08T06:18:52;100483.53;;;0.49;68.15
44839;BME280;30576;42.098;24.876;2023-01-08T06:21:18;100483.09;;;0.38;68.30
44839;BME280;30576;42.098;24.876;2023-01-08T06:23:43;100483.53;;;0.49;68.50
44839;BME280;30576;42.098;24.876;2023-01-08T06:26:08;100488.94;;;0.55;68.34
44839;BME280;30576;42.098;24.876;2023-01-08T06:28:34;100483.47;;;0.70;67.91
44839;BME280;30576;42.098;24.876;2023-01-08T06:30:59;100489.00;;;0.79;68.22
44839;BME280;30576;42.098;24.876;2023-01-08T06:33:25;100498.59;;;0.82;67.94
44839;BME280;30576;42.098;24.876;2023-01-08T06:35:51;100506.72;;;0.91;68.22
44839;BME280;30576;42.098;24.876;2023-01-08T06:38:16;100508.56;;;0.94;68.50
44839;BME280;30576;42.098;24.876;2023-01-08T06:40:47;100501.22;;;1.06;68.38
44839;BME280;30576;42.098;24.876;2023-01-08T06:43:12;100500.84;;;1.19;68.25
44839;BME280;30576;42.098;24.876;2023-01-08T06:45:38;100505.47;;;1.28;68.70
44839;BME280;30576;42.098;24.876;2023-01-08T06:48:04;100512.66;;;1.35;68.86
44839;BME280;30576;42.098;24.876;2023-01-08T06:50:30;100519.84;;;1.42;68.67
44839;BME280;30576;42.098;24.876;2023-01-08T06:52:57;100514.38;;;1.60;68.86
44839;BME280;30576;42.098;24.876;2023-01-08T06:55:22;100512.34;;;1.77;68.91
44839;BME280;30576;42.098;24.876;2023-01-08T06:57:57;100514.13;;;1.78;69.37
44839;BME280;30576;42.098;24.876;2023-01-08T07:00:23;100520.09;;;1.76;70.46
44839;BME280;30576;42.098;24.876;2023-01-08T07:02:50;100517.88;;;1.87;70.73
44839;BME280;30576;42.098;24.876;2023-01-08T07:05:15;100522.81;;;1.79;71.62
44839;BME280;30576;42.098;24.876;2023-01-08T07:07:41;100522.72;;;2.02;71.70
44839;BME280;30576;42.098;24.876;2023-01-08T07:10:06;100518.38;;;2.29;71.30
44839;BME280;30576;42.098;24.876;2023-01-08T07:12:32;100526.88;;;2.51;71.37
44839;BME280;30576;42.098;24.876;2023-01-08T07:14:57;100521.75;;;2.54;71.46
44839;BME280;30576;42.098;24.876;2023-01-08T07:17:22;100525.66;;;2.68;71.07
44839;BME280;30576;42.098;24.876;2023-01-08T07:19:48;100525.38;;;2.88;70.50
44839;BME280;30576;42.098;24.876;2023-01-08T07:22:13;100519.38;;;2.91;70.68
44839;BME280;30576;42.098;24.876;2023-01-08T07:24:38;100531.97;;;3.05;70.52
44839;BME280;30576;42.098;24.876;2023-01-08T07:27:04;100534.81;;;3.15;70.58
44839;BME280;30576;42.098;24.876;2023-01-08T07:29:29;100522.03;;;3.24;70.96
44839;BME280;30576;42.098;24.876;2023-01-08T07:31:54;100525.38;;;3.50;69.95
44839;BME280;30576;42.098;24.876;2023-01-08T07:34:19;100529.84;;;3.88;69.62
44839;BME280;30576;42.098;24.876;2023-01-08T07:36:45;100534.59;;;3.69;69.19
44839;BME280;30576;42.098;24.876;2023-01-08T07:39:10;100538.13;;;3.71;68.94
44839;BME280;30576;42.098;24.876;2023-01-08T07:41:35;100534.41;;;3.97;68.06
44839;BME280;30576;42.098;24.876;2023-01-08T07:44:01;100538.25;;;4.11;67.98
44839;BME280;30576;42.098;24.876;2023-01-08T07:46:26;100531.31;;;4.48;67.62
44839;BME280;30576;42.098;24.876;2023-01-08T07:48:51;100535.56;;;4.44;67.22
44839;BME280;30576;42.098;24.876;2023-01-08T07:51:17;100529.19;;;4.70;66.65
44839;BME280;30576;42.098;24.876;2023-01-08T07:53:42;100540.75;;;4.81;67.75
44839;BME280;30576;42.098;24.876;2023-01-08T07:56:08;100536.94;;;5.08;65.38
44839;BME280;30576;42.098;24.876;2023-01-08T07:58:34;100536.19;;;4.72;66.85
44839;BME280;30576;42.098;24.876;2023-01-08T08:01:00;100527.91;;;4.92;65.80
44839;BME280;30576;42.098;24.876;2023-01-08T08:03:26;100526.47;;;5.08;66.50
44839;BME280;30576;42.098;24.876;2023-01-08T08:05:51;100527.88;;;5.34;65.47
44839;BME280;30576;42.098;24.876;2023-01-08T08:08:17;100528.00;;;5.41;65.80
44839;BME280;30576;42.098;24.876;2023-01-08T08:10:42;100525.47;;;5.45;66.61
44839;BME280;30576;42.098;24.876;2023-01-08T08:13:08;100523.78;;;5.47;65.26
44839;BME280;30576;42.098;24.876;2023-01-08T08:15:34;100530.78;;;5.50;65.46
44839;BME280;30576;42.098;24.876;2023-01-08T08:18:00;100527.91;;;5.36;65.95
44839;BME280;30576;42.098;24.876;2023-01-08T08:20:25;100527.81;;;5.77;65.40
44839;BME280;30576;42.098;24.876;2023-01-08T08:22:50;100530.97;;;5.59;65.29
44839;BME280;30576;42.098;24.876;2023-01-08T08:25:16;100521.75;;;5.80;65.18
44839;BME280;30576;42.098;24.876;2023-01-08T08:27:41;100527.78;;;5.76;65.24
44839;BME280;30576;42.098;24.876;2023-01-08T08:30:07;100520.16;;;5.42;65.49
44839;BME280;30576;42.098;24.876;2023-01-08T08:32:33;100518.13;;;5.73;65.48
44839;BME280;30576;42.098;24.876;2023-01-08T08:34:59;100517.16;;;6.17;63.31
44839;BME280;30576;42.098;24.876;2023-01-08T08:37:24;100520.63;;;6.16;63.53
44839;BME280;30576;42.098;24.876;2023-01-08T08:39:50;100518.16;;;6.25;63.49
44839;BME280;30576;42.098;24.876;2023-01-08T08:42:15;100517.41;;;6.32;63.59
44839;BME280;30576;42.098;24.876;2023-01-08T08:44:40;100516.25;;;6.15;63.60
44839;BME280;30576;42.098;24.876;2023-01-08T08:47:06;100518.06;;;6.19;63.55
44839;BME280;30576;42.098;24.876;2023-01-08T08:49:34;100522.66;;;6.32;63.26
44839;BME280;30576;42.098;24.876;2023-01-08T08:52:00;100521.78;;;6.35;64.34
44839;BME280;30576;42.098;24.876;2023-01-08T08:54:26;100518.09;;;6.20;63.86
44839;BME280;30576;42.098;24.876;2023-01-08T08:56:52;100513.72;;;6.21;64.23
44839;BME280;30576;42.098;24.876;2023-01-08T08:59:18;100514.88;;;6.38;63.21
44839;BME280;30576;42.098;24.876;2023-01-08T09:01:43;100512.47;;;6.52;62.63
44839;BME280;30576;42.098;24.876;2023-01-08T09:04:09;100521.06;;;6.43;62.46
44839;BME280;30576;42.098;24.876;2023-01-08T09:06:34;100513.13;;;6.39;63.36
44839;BME280;30576;42.098;24.876;2023-01-08T09:08:59;100506.38;;;6.55;62.65
44839;BME280;30576;42.098;24.876;2023-01-08T09:11:25;100511.44;;;6.44;62.93
44839;BME280;30576;42.098;24.876;2023-01-08T09:13:51;100508.84;;;6.44;62.65
44839;BME280;30576;42.098;24.876;2023-01-08T09:16:16;100508.16;;;6.57;62.72
44839;BME280;30576;42.098;24.876;2023-01-08T09:18:42;100508.13;;;6.54;62.32
44839;BME280;30576;42.098;24.876;2023-01-08T09:21:08;100506.66;;;6.75;62.47
44839;BME280;30576;42.098;24.876;2023-01-08T09:23:35;100503.38;;;6.91;62.39
44839;BME280;30576;42.098;24.876;2023-01-08T09:26:01;100498.41;;;7.13;61.03
44839;BME280;30576;42.098;24.876;2023-01-08T09:28:27;100490.72;;;7.30;60.09
44839;BME280;30576;42.098;24.876;2023-01-08T09:30:54;100485.78;;;7.62;60.27
44839;BME280;30576;42.098;24.876;2023-01-08T09:33:19;100478.72;;;7.55;58.90
44839;BME280;30576;42.098;24.876;2023-01-08T09:35:45;100480.38;;;7.45;59.92
44839;BME280;30576;42.098;24.876;2023-01-08T09:38:11;100479.44;;;7.39;59.23
44839;BME280;30576;42.098;24.876;2023-01-08T09:43:06;100463.22;;;7.83;59.57
44839;BME280;30576;42.098;24.876;2023-01-08T09:45:36;100451.72;;;7.70;57.91
44839;BME280;30576;42.098;24.876;2023-01-08T09:48:04;100449.78;;;7.50;58.37
44839;BME280;30576;42.098;24.876;2023-01-08T09:50:31;100451.75;;;7.73;57.58
44839;BME280;30576;42.098;24.876;2023-01-08T09:52:57;100455.38;;;7.89;56.75
44839;BME280;30576;42.098;24.876;2023-01-08T09:55:23;100449.97;;;7.69;57.28
44839;BME280;30576;42.098;24.876;2023-01-08T09:57:49;100450.16;;;7.94;56.89
44839;BME280;30576;42.098;24.876;2023-01-08T10:00:16;100452.94;;;8.12;56.23
44839;BME280;30576;42.098;24.876;2023-01-08T10:02:41;100439.00;;;8.22;55.94
44839;BME280;30576;42.098;24.876;2023-01-08T10:05:12;100442.66;;;8.45;54.59
44839;BME280;30576;42.098;24.876;2023-01-08T10:07:37;100430.47;;;8.57;54.76
44839;BME280;30576;42.098;24.876;2023-01-08T10:10:03;100437.47;;;8.60;54.42
44839;BME280;30576;42.098;24.876;2023-01-08T10:12:30;100422.69;;;8.79;53.48
44839;BME280;30576;42.098;24.876;2023-01-08T10:15:01;100425.25;;;8.67;53.98
44839;BME280;30576;42.098;24.876;2023-01-08T10:17:29;100418.25;;;8.73;53.79
44839;BME280;30576;42.098;24.876;2023-01-08T10:19:58;100412.13;;;8.71;54.56
44839;BME280;30576;42.098;24.876;2023-01-08T10:22:24;100405.97;;;8.69;54.96
44839;BME280;30576;42.098;24.876;2023-01-08T10:25:01;100402.50;;;8.86;53.48
44839;BME280;30576;42.098;24.876;2023-01-08T10:27:28;100393.81;;;9.02;53.34
44839;BME280;30576;42.098;24.876;2023-01-08T10:30:03;100395.56;;;9.09;53.98
44839;BME280;30576;42.098;24.876;2023-01-08T10:32:29;100388.56;;;9.19;52.75
44839;BME280;30576;42.098;24.876;2023-01-08T10:34:55;100387.66;;;9.06;52.88
44839;BME280;30576;42.098;24.876;2023-01-08T10:39:49;100380.63;;;8.99;52.35
44839;BME280;30576;42.098;24.876;2023-01-08T10:42:16;100377.13;;;9.08;52.58
44839;BME280;30576;42.098;24.876;2023-01-08T10:45:25;100374.50;;;9.06;52.24
44839;BME280;30576;42.098;24.876;2023-01-08T10:47:31;100368.41;;;9.37;51.16
44839;BME280;30576;42.098;24.876;2023-01-08T10:49:58;100363.13;;;9.58;50.97
44839;BME280;30576;42.098;24.876;2023-01-08T10:52:28;100369.28;;;9.42;50.84
44839;BME280;30576;42.098;24.876;2023-01-08T10:54:55;100368.41;;;9.46;50.78
44839;BME280;30576;42.098;24.876;2023-01-08T10:57:28;100358.75;;;9.59;50.05
44839;BME280;30576;42.098;24.876;2023-01-08T10:59:55;100354.38;;;9.45;49.86
44839;BME280;30576;42.098;24.876;2023-01-08T11:04:55;100349.06;;;9.92;49.41
44839;BME280;30576;42.098;24.876;2023-01-08T11:07:21;100345.53;;;9.96;49.77
44839;BME280;30576;42.098;24.876;2023-01-08T11:09:47;100350.78;;;9.93;49.94
44839;BME280;30576;42.098;24.876;2023-01-08T11:14:51;100340.25;;;9.94;50.30
44839;BME280;30576;42.098;24.876;2023-01-08T11:17:16;100334.97;;;10.02;49.88
44839;BME280;30576;42.098;24.876;2023-01-08T11:19:41;100337.59;;;9.99;49.07
44839;BME280;30576;42.098;24.876;2023-01-08T11:22:20;100329.75;;;9.76;50.20
44839;BME280;30576;42.098;24.876;2023-01-08T11:24:45;100326.22;;;9.91;49.54
44839;BME280;30576;42.098;24.876;2023-01-08T11:29:44;100327.03;;;10.11;49.73
44839;BME280;30576;42.098;24.876;2023-01-08T11:37:18;100319.16;;;10.00;49.00
44839;BME280;30576;42.098;24.876;2023-01-08T11:39:44;100313.91;;;9.93;49.60
44839;BME280;30576;42.098;24.876;2023-01-08T11:47:07;100307.69;;;10.15;47.84
44839;BME280;30576;42.098;24.876;2023-01-08T11:53:25;100296.22;;;10.36;48.33
44839;BME280;30576;42.098;24.876;2023-01-08T11:55:31;100295.25;;;10.51;47.73
44839;BME280;30576;42.098;24.876;2023-01-08T11:58:11;100293.44;;;10.60;47.63
44839;BME280;30576;42.098;24.876;2023-01-08T12:06:50;100286.16;;;11.02;45.47
44839;BME280;30576;42.098;24.876;2023-01-08T12:11:23;100283.56;;;10.94;46.86
44839;BME280;30576;42.098;24.876;2023-01-08T12:21:09;100275.44;;;11.20;45.04
44839;BME280;30576;42.098;24.876;2023-01-08T12:26:23;100272.97;;;10.99;44.84
44839;BME280;30576;42.098;24.876;2023-01-08T12:34:08;100270.13;;;11.26;45.73
44839;BME280;30576;42.098;24.876;2023-01-08T12:36:36;100280.63;;;11.33;45.22
44839;BME280;30576;42.098;24.876;2023-01-08T12:39:07;100271.03;;;11.21;46.18
44839;BME280;30576;42.098;24.876;2023-01-08T12:41:34;100262.22;;;11.25;45.03
44839;BME280;30576;42.098;24.876;2023-01-08T12:44:01;100262.16;;;11.31;45.08
44839;BME280;30576;42.098;24.876;2023-01-08T12:46:29;100261.34;;;11.20;45.65
44839;BME280;30576;42.098;24.876;2023-01-08T12:48:55;100273.69;;;11.19;46.55
44839;BME280;30576;42.098;24.876;2023-01-08T12:51:34;100271.06;;;11.16;45.84
44839;BME280;30576;42.098;24.876;2023-01-08T12:59:27;100274.63;;;11.10;45.48
44839;BME280;30576;42.098;24.876;2023-01-08T13:01:58;100273.69;;;11.19;45.56
44839;BME280;30576;42.098;24.876;2023-01-08T13:04:26;100259.72;;;11.08;45.09
44839;BME280;30576;42.098;24.876;2023-01-08T13:07:02;100264.03;;;11.14;45.31
44839;BME280;30576;42.098;24.876;2023-01-08T13:09:28;100269.22;;;11.27;45.41
44839;BME280;30576;42.098;24.876;2023-01-08T13:11:58;100258.69;;;11.23;45.75
44839;BME280;30576;42.098;24.876;2023-01-08T13:14:24;100259.69;;;11.11;45.56
44839;BME280;30576;42.098;24.876;2023-01-08T13:17:00;100263.28;;;10.99;45.75
44839;BME280;30576;42.098;24.876;2023-01-08T13:19:26;100258.72;;;11.20;45.62
44839;BME280;30576;42.098;24.876;2023-01-08T13:21:53;100264.88;;;11.22;45.06
44839;BME280;30576;42.098;24.876;2023-01-08T13:24:36;100264.91;;;11.17;45.65
44839;BME280;30576;42.098;24.876;2023-01-08T13:27:21;100266.63;;;11.21;45.38
44839;BME280;30576;42.098;24.876;2023-01-08T13:29:50;100268.28;;;11.33;44.97
44839;BME280;30576;42.098;24.876;2023-01-08T13:34:47;100264.00;;;11.18;44.77
44839;BME280;30576;42.098;24.876;2023-01-08T13:37:14;100256.03;;;11.24;44.58
44839;BME280;30576;42.098;24.876;2023-01-08T13:39:49;100264.84;;;11.26;44.64
44839;BME280;30576;42.098;24.876;2023-01-08T13:44:50;100269.94;;;11.46;44.61
44839;BME280;30576;42.098;24.876;2023-01-08T13:47:29;100261.91;;;11.57;44.25
44839;BME280;30576;42.098;24.876;2023-01-08T13:49:55;100263.72;;;11.51;44.67
44839;BME280;30576;42.098;24.876;2023-01-08T13:53:04;100268.22;;;11.41;44.98
44839;BME280;30576;42.098;24.876;2023-01-08T13:55:17;100264.56;;;11.56;44.63
44839;BME280;30576;42.098;24.876;2023-01-08T13:57:45;100257.63;;;11.42;45.27
44839;BME280;30576;42.098;24.876;2023-01-08T14:00:22;100264.72;;;11.40;45.52